Tsiigehtchic, Canada
Current Conditions -  °F | °C
As of 11:00 AM on Thursday 30 Oct 2014 (Local Time) from CYEV Reporting Station
Light Snow Light Snow  
Wind Chill: 16°   Ceiling: 600
Heat Index: 16°   Visibility: 10mi
Dew Point: 14°   Wind: 3mph
Humidity: 93%   Direction: 190°S
Pressure: 29.87"   Gusts: NA
Location:  67.43°N, 133.75°W
Report Text: CYEV 301700Z 19003KT 10SM -SN OVC006 M09/M10 A2987 RMK ST8 SLP122
Loading
Personal Weather Stations






























Interactive Weather Map
Tropical Storm Tracking
New forecast layout! Learn more

10-Day Weather Forecast

Advertisements
Track Severe Weather on mobile